Armony — 5IM517 — position and weather

sailwx.info

Track history (hours):
 
Tides and Currents Weather Stations Pressure Air Temp Water Temp Dewpoint Dewpoint Depression Visibility Wind Speed Wind Dir Waves Ship Positions

Armony

Last reported at 2015-Aug-29 03:33 UTC. Time now 2015-Aug-29 14:48 UTC.
Position N 40°51' E 029°10'.

Length 70 m; draft 3.5 m.

Type: Ship. MMSI: 677041700.

Date/timePositionNaut miles runAvg speedWind from/ knotsBaromVisibWave heightAir tempDewpointWater temp
2015-Aug-29 03:33N 40°51' E 029°10'0 0.1
2015-Aug-29 02:33N 40°51' E 029°10'7 7.3
2015-Aug-29 01:33N 40°46' E 029°17'8 7.7
2015-Aug-29 00:32N 40°45' E 029°27'  
2015-Aug-25 23:27N 40°45' E 029°30'8 6.5
2015-Aug-25 22:10N 40°45' E 029°19'5 7.4
2015-Aug-25 21:33N 40°46' E 029°13'7 7.1
2015-Aug-25 20:33N 40°49' E 029°05'7 6.7
2015-Aug-25 19:33N 40°52' E 028°57'  
Track history (hours):
 
Tides and Currents Weather Stations Pressure Air Temp Water Temp Dewpoint Dewpoint Depression Visibility Wind Speed Wind Dir Waves Ship Positions

Armony

Last reported at 2015-Aug-29 03:33 UTC. Time now 2015-Aug-29 14:48 UTC.
Position N 40°51' E 029°10'.

Length 70 m; draft 3.5 m.

Type: Ship. MMSI: 677041700.

Date/timePositionNaut miles runAvg speedWind from/ knotsBaromVisibWave heightAir tempDewpointWater temp
2015-Aug-29 03:33N 40°51' E 029°10'0 0.1
2015-Aug-29 02:33N 40°51' E 029°10'7 7.3
2015-Aug-29 01:33N 40°46' E 029°17'8 7.7
2015-Aug-29 00:32N 40°45' E 029°27'  
2015-Aug-25 23:27N 40°45' E 029°30'8 6.5
2015-Aug-25 22:10N 40°45' E 029°19'5 7.4
2015-Aug-25 21:33N 40°46' E 029°13'7 7.1
2015-Aug-25 20:33N 40°49' E 029°05'7 6.7
2015-Aug-25 19:33N 40°52' E 028°57'  

Dump ship's entire track history